createdAt,value
2018-12-13T00:02:11.062Z,89.41
2018-12-13T00:04:46.135Z,89.27
2018-12-13T00:07:20.978Z,89.67
2018-12-13T00:09:55.785Z,89.32
2018-12-13T00:12:30.222Z,89.09
2018-12-13T00:15:06.210Z,89.65
2018-12-13T00:17:41.210Z,89.66
2018-12-13T00:20:16.201Z,89.28
2018-12-13T00:22:51.295Z,89.11
2018-12-13T00:25:26.059Z,89.74
2018-12-13T00:28:00.505Z,89.72
2018-12-13T00:30:35.417Z,89.77
2018-12-13T00:33:10.170Z,90.06
2018-12-13T00:35:44.454Z,89.97
2018-12-13T00:38:18.991Z,89.47
2018-12-13T00:40:53.675Z,89.40
2018-12-13T00:43:29.145Z,89.18
2018-12-13T00:46:04.921Z,89.16
2018-12-13T00:48:39.427Z,89.04
2018-12-13T00:51:13.927Z,89.41
2018-12-13T00:53:49.453Z,89.02
2018-12-13T00:56:23.832Z,88.68
2018-12-13T00:58:58.498Z,89.05
2018-12-13T01:01:33.097Z,89.34
2018-12-13T01:04:08.361Z,88.86
2018-12-13T01:06:45.993Z,89.22
2018-12-13T01:09:20.586Z,89.02
2018-12-13T01:11:55.861Z,89.29
2018-12-13T01:14:30.582Z,89.00
2018-12-13T01:17:05.153Z,87.88
2018-12-13T01:19:39.546Z,88.08
2018-12-13T01:22:14.226Z,87.99
2018-12-13T01:24:49.206Z,88.33
2018-12-13T01:27:23.740Z,88.56
2018-12-13T01:29:58.378Z,88.79
2018-12-13T01:32:33.272Z,89.25
2018-12-13T01:35:08.645Z,88.67
2018-12-13T01:37:43.554Z,88.34
2018-12-13T01:40:18.170Z,88.36
2018-12-13T01:42:52.638Z,88.35
2018-12-13T01:45:27.794Z,88.76
2018-12-13T01:48:04.213Z,89.52
2018-12-13T01:50:39.107Z,89.55
2018-12-13T01:53:13.438Z,89.75
2018-12-13T01:55:48.066Z,89.17
2018-12-13T01:58:23.326Z,88.20
2018-12-13T02:00:58.030Z,87.89
2018-12-13T02:03:32.473Z,88.16
2018-12-13T02:06:07.392Z,87.54
2018-12-13T02:08:42.130Z,87.42
2018-12-13T02:11:16.645Z,86.53
2018-12-13T02:13:51.044Z,87.42
2018-12-13T02:16:26.075Z,87.79
2018-12-13T02:19:00.573Z,87.78
2018-12-13T02:21:35.374Z,87.12
2018-12-13T02:24:10.449Z,87.64
2018-12-13T02:26:45.450Z,87.16
2018-12-13T02:29:20.427Z,87.49
2018-12-13T02:31:55.496Z,88.33
2018-12-13T02:34:30.023Z,87.34
2018-12-13T02:40:01.089Z,87.39
2018-12-13T02:42:35.542Z,87.47
2018-12-13T02:45:10.267Z,87.75
2018-12-13T02:50:14.760Z,88.11
2018-12-13T02:52:49.594Z,87.94
2018-12-13T02:55:24.139Z,87.23
2018-12-13T02:57:59.057Z,87.62
2018-12-13T03:00:34.309Z,87.03
2018-12-13T03:03:09.038Z,87.01
2018-12-13T03:05:43.419Z,86.73
2018-12-13T03:08:18.092Z,87.26
2018-12-13T03:10:53.144Z,87.17
2018-12-13T03:13:28.730Z,87.84
2018-12-13T03:16:04.394Z,87.18
2018-12-13T03:18:38.757Z,87.46
2018-12-13T03:21:13.671Z,86.63
2018-12-13T03:24:07.332Z,87.04
2018-12-13T03:26:42.924Z,86.86
2018-12-13T03:29:17.241Z,86.67
2018-12-13T03:31:52.151Z,86.42
2018-12-13T03:34:26.863Z,86.03
2018-12-13T03:39:58.056Z,87.23
2018-12-13T03:42:32.632Z,87.43
2018-12-13T03:45:08.127Z,87.15
2018-12-13T03:47:43.223Z,87.11
2018-12-13T03:50:17.783Z,87.42
2018-12-13T03:52:52.522Z,87.46
2018-12-13T03:55:27.608Z,86.86
2018-12-13T03:58:02.826Z,86.78
2018-12-13T04:00:37.924Z,87.51
2018-12-13T04:03:12.634Z,86.92
2018-12-13T04:05:47.510Z,87.19
2018-12-13T04:08:22.315Z,87.25
2018-12-13T04:10:56.647Z,86.37
2018-12-13T04:13:31.833Z,87.05
2018-12-13T04:16:06.727Z,86.22
2018-12-13T04:18:41.665Z,86.77
2018-12-13T04:21:16.700Z,86.72
2018-12-13T04:23:51.910Z,87.79
2018-12-13T04:26:27.092Z,87.70
2018-12-13T04:29:02.178Z,87.88
2018-12-13T04:31:37.444Z,86.97
2018-12-13T04:34:12.607Z,87.08
2018-12-13T04:36:47.783Z,87.16
2018-12-13T04:39:22.382Z,86.72
2018-12-13T04:41:57.179Z,86.77
2018-12-13T04:44:31.887Z,87.19
2018-12-13T04:47:08.523Z,87.02
2018-12-13T04:49:42.946Z,86.93
2018-12-13T04:52:17.842Z,87.12
2018-12-13T04:54:52.250Z,87.82
2018-12-13T04:57:27.105Z,87.44
2018-12-13T05:00:02.089Z,86.87
2018-12-13T05:02:37.543Z,86.76
2018-12-13T05:05:13.588Z,86.72
2018-12-13T05:07:49.469Z,86.76
2018-12-13T05:10:35.111Z,87.06
2018-12-13T05:13:09.645Z,87.22
2018-12-13T05:15:44.200Z,87.85
2018-12-13T05:18:24.226Z,88.14
2018-12-13T05:20:59.079Z,88.30
2018-12-13T05:23:33.519Z,87.67
2018-12-13T05:26:08.046Z,88.13
2018-12-13T05:28:42.750Z,88.19
2018-12-13T05:31:17.734Z,88.36
2018-12-13T05:33:52.533Z,87.60
2018-12-13T05:36:27.154Z,87.56
2018-12-13T05:39:01.705Z,87.37
2018-12-13T05:41:36.854Z,86.58
2018-12-13T05:44:26.115Z,86.64
2018-12-13T05:50:13.275Z,88.98
2018-12-13T05:52:48.186Z,88.16
2018-12-13T05:55:23.246Z,87.22
2018-12-13T06:00:54.627Z,86.93
2018-12-13T06:03:29.351Z,87.07
2018-12-13T06:06:04.655Z,87.76
2018-12-13T06:08:39.391Z,88.28
2018-12-13T06:11:14.050Z,87.75
2018-12-13T06:13:49.074Z,88.19
2018-12-13T06:16:23.578Z,87.93
2018-12-13T06:18:58.282Z,87.91
2018-12-13T06:21:36.857Z,88.27
2018-12-13T06:24:09.892Z,88.64
2018-12-13T06:26:44.766Z,88.97
2018-12-13T06:29:19.393Z,88.78
2018-12-13T06:31:54.338Z,89.18
2018-12-13T06:34:29.093Z,89.48
2018-12-13T06:37:03.653Z,89.04
2018-12-13T06:39:38.734Z,89.24
2018-12-13T06:42:13.231Z,89.75
2018-12-13T06:44:47.569Z,89.60
2018-12-13T06:47:22.007Z,90.20
2018-12-13T06:49:57.034Z,89.39
2018-12-13T06:52:31.613Z,89.39
2018-12-13T06:55:07.114Z,89.73
2018-12-13T06:57:41.973Z,89.48
2018-12-13T07:00:16.390Z,89.94
2018-12-13T07:02:51.047Z,90.24
2018-12-13T07:05:25.911Z,89.46
2018-12-13T07:08:00.374Z,89.49
2018-12-13T07:10:35.104Z,89.45
2018-12-13T07:13:09.991Z,89.22
2018-12-13T07:15:45.442Z,90.10
2018-12-13T07:18:20.375Z,89.94
2018-12-13T07:20:55.281Z,89.54
2018-12-13T07:23:29.554Z,88.91
2018-12-13T07:26:05.225Z,87.89
2018-12-13T07:28:40.187Z,88.32
2018-12-13T07:31:15.348Z,88.32
2018-12-13T07:33:50.098Z,88.71
2018-12-13T07:36:25.289Z,88.12
2018-12-13T07:39:00.038Z,87.18
2018-12-13T07:41:35.185Z,87.67
2018-12-13T07:44:09.926Z,87.10
2018-12-13T07:46:44.843Z,86.09
2018-12-13T07:49:19.598Z,86.09
2018-12-13T07:51:54.383Z,86.70
2018-12-13T07:54:29.155Z,87.44
2018-12-13T07:57:04.247Z,86.85
2018-12-13T07:59:38.949Z,87.01
2018-12-13T08:02:13.856Z,86.20
2018-12-13T08:04:48.406Z,86.55
2018-12-13T08:07:22.803Z,87.04
2018-12-13T08:09:57.552Z,86.95
2018-12-13T08:12:32.338Z,87.37
2018-12-13T08:15:07.676Z,86.77
2018-12-13T08:17:43.094Z,86.38
2018-12-13T08:20:18.651Z,85.68
2018-12-13T08:22:53.480Z,86.32
2018-12-13T08:25:27.922Z,86.66
2018-12-13T08:28:02.906Z,86.73
2018-12-13T08:30:37.995Z,87.03
2018-12-13T08:33:12.783Z,87.48
2018-12-13T08:35:47.318Z,87.01
2018-12-13T08:38:27.118Z,85.52
2018-12-13T08:40:59.255Z,85.83
2018-12-13T08:43:33.855Z,85.67
2018-12-13T08:46:09.306Z,84.56
2018-12-13T08:48:43.592Z,84.64
2018-12-13T08:51:18.678Z,83.99
2018-12-13T08:53:53.339Z,85.03
2018-12-13T08:56:27.935Z,84.54
2018-12-13T08:59:02.922Z,83.96
2018-12-13T09:01:37.856Z,84.07
2018-12-13T09:04:12.553Z,83.87
2018-12-13T09:06:47.531Z,83.90
2018-12-13T09:09:23.026Z,84.41
2018-12-13T09:11:58.186Z,85.00
2018-12-13T09:14:32.870Z,84.38
2018-12-13T09:17:07.439Z,84.67
2018-12-13T09:19:42.675Z,85.23
2018-12-13T09:22:17.719Z,84.21
2018-12-13T09:24:52.678Z,85.24
2018-12-13T09:27:27.839Z,85.11
2018-12-13T09:30:02.673Z,84.80
2018-12-13T09:32:37.185Z,84.36
2018-12-13T09:35:11.890Z,84.73
2018-12-13T09:37:47.723Z,84.60
2018-12-13T09:40:22.492Z,84.24
2018-12-13T09:42:57.213Z,84.66
2018-12-13T09:45:32.252Z,85.12
2018-12-13T09:48:07.302Z,84.79
2018-12-13T09:50:42.000Z,84.69
2018-12-13T09:55:48.639Z,84.27
2018-12-13T09:58:23.157Z,84.13
2018-12-13T10:00:58.450Z,83.87
2018-12-13T10:03:33.091Z,83.92
2018-12-13T10:06:08.906Z,84.71
2018-12-13T10:08:46.339Z,83.99
2018-12-13T10:11:20.002Z,84.51
2018-12-13T10:13:54.474Z,84.06
2018-12-13T10:16:29.607Z,84.00
2018-12-13T10:19:04.533Z,83.95
2018-12-13T10:21:39.683Z,83.86
2018-12-13T10:24:15.104Z,83.89
2018-12-13T10:26:50.280Z,83.86
2018-12-13T10:29:25.310Z,83.05
2018-12-13T10:31:59.719Z,82.74
2018-12-13T10:34:34.648Z,81.68
2018-12-13T10:37:09.042Z,81.88
2018-12-13T10:39:43.452Z,82.83
2018-12-13T10:42:18.473Z,82.12
2018-12-13T10:44:53.939Z,81.51
2018-12-13T10:47:29.669Z,80.62
2018-12-13T10:50:05.999Z,81.42
2018-12-13T10:52:40.659Z,81.48
2018-12-13T10:55:15.817Z,81.92
2018-12-13T10:57:50.586Z,82.45
2018-12-13T11:00:30.249Z,80.77
2018-12-13T11:03:23.980Z,80.57
2018-12-13T11:05:59.000Z,80.97
2018-12-13T11:08:33.955Z,80.74
2018-12-13T11:11:08.869Z,80.09
2018-12-13T11:13:43.327Z,80.01
2018-12-13T11:16:17.941Z,79.47
2018-12-13T11:18:52.996Z,80.13
2018-12-13T11:21:28.935Z,81.40
2018-12-13T11:24:03.863Z,80.71
2018-12-13T11:26:38.750Z,79.86
2018-12-13T11:29:24.474Z,81.58
2018-12-13T11:31:59.083Z,81.53
2018-12-13T11:34:33.506Z,80.27
2018-12-13T11:37:08.253Z,80.29
2018-12-13T11:39:42.927Z,80.20
2018-12-13T11:42:17.672Z,79.75
2018-12-13T11:44:52.182Z,79.43
2018-12-13T11:47:27.068Z,78.88
2018-12-13T11:50:01.652Z,78.82
2018-12-13T11:52:36.546Z,79.47
2018-12-13T11:55:22.475Z,78.94
2018-12-13T11:57:57.414Z,77.99
2018-12-13T12:00:31.794Z,78.11
2018-12-13T12:03:06.737Z,79.05
2018-12-13T12:05:41.843Z,78.99
2018-12-13T12:08:16.543Z,78.47
2018-12-13T12:10:51.319Z,78.47
2018-12-13T12:13:26.627Z,77.84
2018-12-13T12:16:01.690Z,78.75
2018-12-13T12:18:36.149Z,79.17
2018-12-13T12:21:10.758Z,79.18
2018-12-13T12:23:45.319Z,79.37
2018-12-13T12:26:20.602Z,78.57
2018-12-13T12:28:55.181Z,79.16
2018-12-13T12:31:29.994Z,79.80
2018-12-13T12:34:04.560Z,79.73
2018-12-13T12:36:39.415Z,80.01
2018-12-13T12:39:18.626Z,79.95
2018-12-13T12:41:50.475Z,77.99
2018-12-13T12:44:27.559Z,78.48
2018-12-13T12:47:02.671Z,78.10
2018-12-13T12:49:37.535Z,78.25
2018-12-13T12:52:12.907Z,78.34
2018-12-13T12:54:47.630Z,78.76
2018-12-13T12:57:22.291Z,77.90
2018-12-13T12:59:57.266Z,78.72
2018-12-13T13:02:32.797Z,79.43
2018-12-13T13:05:08.270Z,78.79
2018-12-13T13:07:42.831Z,78.88
2018-12-13T13:10:17.657Z,77.91
2018-12-13T13:12:52.354Z,78.16
2018-12-13T13:15:27.274Z,77.45
2018-12-13T13:18:01.908Z,78.12
2018-12-13T13:20:37.171Z,78.87
2018-12-13T13:23:12.142Z,78.79
2018-12-13T13:25:47.664Z,79.06
2018-12-13T13:28:22.243Z,80.14
2018-12-13T13:30:57.365Z,81.11
2018-12-13T13:33:32.129Z,81.00
2018-12-13T13:36:06.775Z,80.27
2018-12-13T13:38:41.226Z,80.24
2018-12-13T13:41:15.981Z,79.80
2018-12-13T13:43:50.431Z,80.41
2018-12-13T13:46:25.563Z,80.21
2018-12-13T13:49:00.655Z,80.42
2018-12-13T13:51:35.531Z,78.84
2018-12-13T13:54:09.983Z,78.85
2018-12-13T13:56:44.561Z,77.97
2018-12-13T13:59:19.013Z,78.90
2018-12-13T14:01:54.210Z,78.65
2018-12-13T14:04:28.555Z,78.47
2018-12-13T14:10:01.768Z,80.07
2018-12-13T14:12:36.389Z,79.66
2018-12-13T14:15:11.880Z,80.10
2018-12-13T14:17:46.546Z,80.56
2018-12-13T14:20:21.494Z,80.72
2018-12-13T14:22:56.314Z,81.69
2018-12-13T14:25:31.759Z,81.65
2018-12-13T14:28:06.578Z,81.45
2018-12-13T14:30:41.286Z,81.46
2018-12-13T14:33:16.295Z,80.25
2018-12-13T14:35:50.942Z,80.46
2018-12-13T14:38:25.967Z,80.78
2018-12-13T14:41:02.288Z,80.42
2018-12-13T14:43:37.409Z,80.38
2018-12-13T14:46:12.578Z,80.95
2018-12-13T14:48:47.401Z,80.96
2018-12-13T14:51:21.955Z,80.11
2018-12-13T14:53:57.513Z,80.49
2018-12-13T14:56:32.927Z,80.07
2018-12-13T14:59:07.408Z,80.09
2018-12-13T15:01:42.586Z,80.17
2018-12-13T15:04:17.701Z,80.62
2018-12-13T15:06:52.005Z,80.74
2018-12-13T15:09:26.526Z,80.93
2018-12-13T15:12:01.302Z,80.32
2018-12-13T15:14:36.511Z,80.28
2018-12-13T15:17:11.215Z,80.21
2018-12-13T15:19:45.948Z,80.17
2018-12-13T15:22:20.775Z,80.96
2018-12-13T15:24:55.810Z,81.02
2018-12-13T15:27:30.213Z,81.70
2018-12-13T15:30:06.902Z,80.58
2018-12-13T15:32:41.532Z,80.98
2018-12-13T15:35:16.198Z,81.19
2018-12-13T15:37:50.590Z,81.13
2018-12-13T15:40:25.234Z,79.90
2018-12-13T15:43:00.309Z,80.90
2018-12-13T15:45:35.651Z,82.49
2018-12-13T15:48:10.630Z,82.83
2018-12-13T15:50:45.534Z,82.15
2018-12-13T15:53:20.091Z,80.89
2018-12-13T15:55:54.616Z,81.21
2018-12-13T15:58:29.531Z,80.98
2018-12-13T16:01:04.682Z,80.70
2018-12-13T16:03:39.502Z,80.07
2018-12-13T16:06:13.966Z,80.52
2018-12-13T16:08:48.310Z,81.40
2018-12-13T16:11:22.625Z,80.55
2018-12-13T16:13:57.552Z,80.40
2018-12-13T16:16:32.254Z,81.30
2018-12-13T16:19:07.103Z,82.40
2018-12-13T16:21:41.454Z,81.05
2018-12-13T16:24:16.085Z,80.67
2018-12-13T16:26:51.531Z,80.78
2018-12-13T16:29:26.242Z,80.14
2018-12-13T16:32:00.682Z,80.69
2018-12-13T16:34:35.339Z,81.65
2018-12-13T16:37:09.926Z,80.21
2018-12-13T16:39:44.455Z,80.61
2018-12-13T16:42:19.522Z,80.85
2018-12-13T16:44:55.974Z,81.33
2018-12-13T16:47:30.418Z,80.59
2018-12-13T16:50:07.214Z,80.96
2018-12-13T16:52:41.720Z,81.29
2018-12-13T16:55:16.222Z,81.39
2018-12-13T16:57:51.706Z,82.12
2018-12-13T17:00:27.094Z,83.24
2018-12-13T17:03:07.979Z,82.51
2018-12-13T17:05:42.392Z,81.54
2018-12-13T17:08:16.790Z,81.55
2018-12-13T17:10:51.602Z,81.62
2018-12-13T17:13:25.939Z,81.66
2018-12-13T17:16:01.423Z,81.62
2018-12-13T17:18:35.878Z,82.14
2018-12-13T17:21:10.931Z,82.67
2018-12-13T17:23:45.587Z,82.47
2018-12-13T17:26:20.020Z,81.50
2018-12-13T17:28:54.483Z,81.60
2018-12-13T17:31:29.490Z,81.64
2018-12-13T17:34:04.946Z,81.54
2018-12-13T17:36:40.189Z,81.32
2018-12-13T17:39:14.723Z,81.91
2018-12-13T17:41:49.530Z,81.79
2018-12-13T17:44:24.015Z,82.19
2018-12-13T17:46:59.210Z,81.93
2018-12-13T17:49:33.677Z,81.94
2018-12-13T17:52:09.018Z,81.79
2018-12-13T17:54:43.698Z,82.29
2018-12-13T17:57:18.243Z,81.59
2018-12-13T17:59:53.680Z,81.97
2018-12-13T18:02:28.254Z,80.89
2018-12-13T18:05:02.978Z,81.84
2018-12-13T18:07:37.805Z,82.60
2018-12-13T18:10:13.154Z,82.83
2018-12-13T18:12:48.599Z,83.40
2018-12-13T18:15:23.575Z,83.22
2018-12-13T18:17:58.547Z,83.01
2018-12-13T18:20:33.274Z,82.02
2018-12-13T18:23:07.781Z,82.04
2018-12-13T18:25:43.771Z,82.52
2018-12-13T18:28:19.098Z,82.75
2018-12-13T18:30:53.756Z,81.96
2018-12-13T18:33:28.963Z,81.73
2018-12-13T18:36:04.169Z,81.84
2018-12-13T18:38:38.716Z,81.64
2018-12-13T18:41:13.583Z,82.24
2018-12-13T18:43:49.395Z,82.11
2018-12-13T18:46:24.853Z,81.90
2018-12-13T18:48:59.482Z,82.55
2018-12-13T18:51:35.528Z,82.48
2018-12-13T18:54:10.697Z,82.70
2018-12-13T18:56:45.371Z,82.62
2018-12-13T18:59:20.822Z,82.96
2018-12-13T19:01:55.750Z,82.98
2018-12-13T19:04:30.894Z,83.00
2018-12-13T19:07:09.618Z,82.68
2018-12-13T19:09:47.574Z,82.45
2018-12-13T19:12:28.130Z,82.38
2018-12-13T19:15:02.642Z,82.98
2018-12-13T19:17:37.019Z,82.90
2018-12-13T19:20:12.882Z,83.71
2018-12-13T19:22:47.242Z,83.70
2018-12-13T19:25:22.331Z,83.54
2018-12-13T19:27:57.195Z,83.88
2018-12-13T19:30:32.100Z,84.42
2018-12-13T19:33:07.127Z,84.60
2018-12-13T19:35:41.966Z,83.47
2018-12-13T19:38:16.494Z,83.02
2018-12-13T19:40:51.929Z,83.23
2018-12-13T19:43:26.858Z,82.45
2018-12-13T19:46:01.505Z,81.75
2018-12-13T19:48:36.536Z,82.57
2018-12-13T19:51:11.215Z,82.95
2018-12-13T19:53:45.819Z,82.01
2018-12-13T19:56:20.497Z,82.03
2018-12-13T19:58:55.438Z,81.40
2018-12-13T20:01:30.675Z,82.91
2018-12-13T20:04:05.287Z,82.33
2018-12-13T20:06:39.981Z,83.26
2018-12-13T20:09:14.375Z,82.63
2018-12-13T20:14:47.780Z,82.92
2018-12-13T20:17:34.582Z,82.45
2018-12-13T20:20:18.867Z,82.91
2018-12-13T20:22:53.394Z,83.64
2018-12-13T20:25:34.002Z,83.99
2018-12-13T20:31:05.752Z,83.50
2018-12-13T20:33:40.343Z,84.32
2018-12-13T20:39:13.210Z,84.86
2018-12-13T20:41:48.224Z,84.20
2018-12-13T20:44:23.299Z,83.60
2018-12-13T20:49:55.316Z,84.15
2018-12-13T20:52:30.087Z,83.45
2018-12-13T20:55:14.778Z,83.07
2018-12-13T21:00:47.380Z,83.54
2018-12-13T21:03:22.227Z,83.56
2018-12-13T21:05:56.675Z,83.39
2018-12-13T21:08:31.075Z,83.09
2018-12-13T21:11:07.576Z,82.60
2018-12-13T21:13:42.863Z,83.45
2018-12-13T21:16:17.434Z,83.48
2018-12-13T21:18:52.102Z,84.83
2018-12-13T21:21:27.523Z,84.14
2018-12-13T21:24:02.705Z,84.37
2018-12-13T21:26:37.897Z,83.85
2018-12-13T21:29:12.389Z,84.30
2018-12-13T21:31:46.814Z,83.25
2018-12-13T21:37:36.921Z,84.31
2018-12-13T21:40:12.362Z,84.13
2018-12-13T21:42:47.139Z,83.42
2018-12-13T21:45:21.438Z,83.17
2018-12-13T21:50:56.733Z,81.84
2018-12-13T21:53:31.726Z,81.24
2018-12-13T21:56:06.349Z,82.64
2018-12-13T21:58:41.402Z,82.84
2018-12-13T22:01:16.167Z,82.24
2018-12-13T22:03:50.980Z,83.35
2018-12-13T22:06:25.870Z,83.80
2018-12-13T22:09:00.422Z,83.95
2018-12-13T22:11:35.202Z,84.59
2018-12-13T22:14:09.640Z,84.14
2018-12-13T22:16:56.675Z,84.41
2018-12-13T22:19:31.653Z,84.38
2018-12-13T22:22:06.718Z,84.50
2018-12-13T22:24:41.860Z,83.83
2018-12-13T22:27:16.420Z,81.41
2018-12-13T22:29:51.135Z,82.40
2018-12-13T22:32:25.792Z,82.87
2018-12-13T22:35:00.419Z,82.89
2018-12-13T22:37:34.810Z,82.51
2018-12-13T22:40:09.926Z,82.92
2018-12-13T22:42:45.077Z,83.10
2018-12-13T22:45:19.954Z,83.66
2018-12-13T22:47:54.670Z,84.29
2018-12-13T22:50:29.758Z,83.60
2018-12-13T22:53:05.120Z,82.91
2018-12-13T22:55:40.218Z,83.44
2018-12-13T22:58:15.399Z,83.68
2018-12-13T23:00:50.716Z,83.79
2018-12-13T23:03:26.245Z,83.99
2018-12-13T23:06:00.688Z,84.64
2018-12-13T23:08:35.227Z,84.24
2018-12-13T23:11:10.891Z,84.23
2018-12-13T23:13:45.555Z,84.58
2018-12-13T23:16:20.088Z,83.53
2018-12-13T23:18:54.774Z,82.59
2018-12-13T23:21:29.888Z,81.97
2018-12-13T23:24:05.214Z,82.73
2018-12-13T23:26:40.104Z,82.46
2018-12-13T23:29:14.754Z,83.90
2018-12-13T23:31:49.378Z,83.86
2018-12-13T23:34:24.119Z,83.23
2018-12-13T23:36:58.546Z,83.62
2018-12-13T23:39:32.966Z,82.93
2018-12-13T23:42:07.942Z,81.87
2018-12-13T23:44:42.850Z,81.17
2018-12-13T23:47:18.171Z,81.42
2018-12-13T23:49:52.505Z,80.29
2018-12-13T23:52:27.554Z,80.50
2018-12-13T23:55:02.768Z,80.36
2018-12-13T23:57:37.854Z,81.16
